Time;durP1;ratioP1;P1;durP2;ratioP2;P2;SDS_P1;SDS_P2;PMS_P1;PMS_P2;Temp;Humidity;BMP_temperature;BMP_pressure;BME280_temperature;BME280_humidity;BME280_pressure;Samples;Min_cycle;Max_cycle;Signal;HPM_P1;HPM_P2
2021/07/10 00:02:38;;;;;;;;;;;;;;;25.62;56.70;101286.66;5049007;28;1224;-68
2021/07/10 00:05:23;;;;;;;;;;;;;;;25.63;57.02;101289.22;5048931;28;624;-69
2021/07/10 00:08:09;;;;;;;;;;;;;;;25.61;56.95;101279.63;5047797;28;1365;-66
2021/07/10 00:10:54;;;;;;;;;;;;;;;25.62;55.92;101281.34;5048962;28;903;-67
2021/07/10 00:13:39;;;;;;;;;;;;;;;25.61;57.17;101280.47;5048416;28;1362;-68
2021/07/10 00:16:25;;;;;;;;;;;;;;;25.61;56.72;101274.28;5047400;28;1902;-68
2021/07/10 00:19:10;;;;;;;;;;;;;;;25.60;57.44;101272.59;5048869;28;1244;-66
2021/07/10 00:21:55;;;;;;;;;;;;;;;25.60;57.18;101265.44;5048298;28;1342;-68
2021/07/10 00:24:41;;;;;;;;;;;;;;;25.59;56.47;101271.75;5047453;28;1304;-69
2021/07/10 00:27:26;;;;;;;;;;;;;;;25.61;56.82;101272.47;5048911;28;1092;-68
2021/07/10 00:30:12;;;;;;;;;;;;;;;25.60;57.11;101273.44;5048602;28;647;-67
2021/07/10 00:32:57;;;;;;;;;;;;;;;25.60;56.89;101269.91;5047070;28;1323;-70
2021/07/10 00:35:43;;;;;;;;;;;;;;;25.58;56.72;101263.84;5048248;28;1914;-69
2021/07/10 00:38:28;;;;;;;;;;;;;;;25.58;56.26;101263.84;5048108;28;1291;-69
2021/07/10 00:41:13;;;;;;;;;;;;;;;25.54;56.58;101261.44;5048289;28;931;-69
2021/07/10 00:43:59;;;;;;;;;;;;;;;25.53;56.42;101254.38;5048241;28;1260;-69
2021/07/10 00:46:44;;;;;;;;;;;;;;;25.55;56.92;101254.28;5048736;28;1055;-69
2021/07/10 00:49:29;;;;;;;;;;;;;;;25.52;57.36;101250.03;5048290;28;1276;-69
2021/07/10 00:52:14;;;;;;;;;;;;;;;25.52;56.99;101247.38;5052101;28;1517;-68
2021/07/10 00:55:00;;;;;;;;;;;;;;;25.54;56.87;101233.91;5052192;28;1328;-68
2021/07/10 00:57:46;;;;;;;;;;;;;;;25.54;56.46;101236.56;5052351;28;1243;-68
2021/07/10 01:00:31;;;;;;;;;;;;;;;25.54;57.36;101237.41;5052040;28;621;-68
2021/07/10 01:03:16;;;;;;;;;;;;;;;25.51;57.27;101232.31;5052269;28;1288;-68
2021/07/10 01:06:02;;;;;;;;;;;;;;;25.51;57.12;101231.47;5051925;28;942;-67
2021/07/10 01:08:48;;;;;;;;;;;;;;;25.49;57.20;101228.09;5052149;28;1285;-68
2021/07/10 01:11:33;;;;;;;;;;;;;;;25.50;56.40;101227.13;5050761;28;978;-68
2021/07/10 01:14:20;;;;;;;;;;;;;;;25.49;57.31;101222.75;5051874;28;1256;-68
2021/07/10 01:17:05;;;;;;;;;;;;;;;25.51;57.46;101220.81;5051869;28;1969;-68
2021/07/10 01:20:01;;;;;;;;;;;;;;;25.50;57.57;101221.78;5052032;28;1248;-69
2021/07/10 01:22:47;;;;;;;;;;;;;;;25.48;57.77;101224.56;5051964;28;1192;-68
2021/07/10 01:25:32;;;;;;;;;;;;;;;25.49;56.86;101220.09;5051649;28;596;-67
2021/07/10 01:28:18;;;;;;;;;;;;;;;25.47;57.02;101220.16;5051564;28;1341;-68
2021/07/10 01:31:04;;;;;;;;;;;;;;;25.48;57.44;101218.34;5051588;28;1041;-68
2021/07/10 01:33:50;;;;;;;;;;;;;;;25.45;57.46;101219.44;5051907;28;1292;-68
2021/07/10 01:36:35;;;;;;;;;;;;;;;25.45;57.39;101210.59;5051545;28;1959;-68
2021/07/10 01:39:20;;;;;;;;;;;;;;;25.46;57.68;101220.28;5050707;28;1366;-68
2021/07/10 01:42:06;;;;;;;;;;;;;;;25.46;56.48;101209.63;5051548;28;983;-68
2021/07/10 01:44:51;;;;;;;;;;;;;;;25.44;56.46;101209.72;5051623;28;1308;-69
2021/07/10 01:47:36;;;;;;;;;;;;;;;25.44;57.25;101207.06;5051848;28;1141;-69
2021/07/10 01:50:22;;;;;;;;;;;;;;;25.43;57.18;101202.72;5051323;28;706;-68
2021/07/10 01:53:09;;;;;;;;;;;;;;;25.46;57.34;101196.28;5051194;28;1291;-69
2021/07/10 01:55:55;;;;;;;;;;;;;;;25.45;56.94;101184.75;5051056;28;1898;-68
2021/07/10 01:58:40;;;;;;;;;;;;;;;25.48;56.41;101183.66;5050907;28;1307;-68
2021/07/10 02:01:25;;;;;;;;;;;;;;;25.44;56.34;101182.22;5050705;28;1158;-68
2021/07/10 02:04:12;;;;;;;;;;;;;;;25.40;56.02;101181.63;5050696;28;1327;-69
2021/07/10 02:06:58;;;;;;;;;;;;;;;25.40;56.55;101180.75;5050983;28;938;-69
2021/07/10 02:09:44;;;;;;;;;;;;;;;25.40;56.13;101176.28;5050629;28;1384;-69
2021/07/10 02:12:29;;;;;;;;;;;;;;;25.41;55.71;101171.81;5050791;28;1089;-68
2021/07/10 02:15:15;;;;;;;;;;;;;;;25.40;55.97;101175.44;5049629;28;694;-68
2021/07/10 02:18:00;;;;;;;;;;;;;;;25.39;56.41;101171.91;5049317;28;1284;-68
2021/07/10 02:20:45;;;;;;;;;;;;;;;25.37;55.82;101160.53;5050715;28;1055;-68
2021/07/10 02:23:31;;;;;;;;;;;;;;;25.38;56.36;101166.72;5050402;28;1277;-68
2021/07/10 02:26:16;;;;;;;;;;;;;;;25.38;56.18;101169.38;5050536;28;950;-67
2021/07/10 02:29:04;;;;;;;;;;;;;;;25.38;55.90;101166.72;5049896;28;1370;-68
2021/07/10 02:31:49;;;;;;;;;;;;;;;25.40;55.97;101154.09;5050623;28;1079;-67
2021/07/10 02:34:35;;;;;;;;;;;;;;;25.37;55.60;101155.19;5050441;28;1284;-68
2021/07/10 02:37:20;;;;;;;;;;;;;;;25.35;55.11;101150.94;5050874;28;1886;-68
2021/07/10 02:40:07;;;;;;;;;;;;;;;25.33;55.48;101152.88;5050666;28;702;-68
2021/07/10 02:42:52;;;;;;;;;;;;;;;25.36;54.80;101153.47;5050158;28;1191;-67
2021/07/10 02:45:38;;;;;;;;;;;;;;;25.34;55.24;101150.09;5050100;28;1139;-68
2021/07/10 02:48:24;;;;;;;;;;;;;;;25.33;54.90;101147.53;5050193;28;1355;-67
2021/07/10 02:51:09;;;;;;;;;;;;;;;25.32;54.90;101146.69;5049692;28;1139;-67
2021/07/10 02:53:55;;;;;;;;;;;;;;;25.32;54.32;101138.69;5050105;28;1292;-67
2021/07/10 02:56:40;;;;;;;;;;;;;;;25.29;54.59;101138.94;5049689;28;1906;-67
2021/07/10 02:59:25;;;;;;;;;;;;;;;25.30;54.55;101137.09;5049941;28;1275;-67
2021/07/10 03:02:11;;;;;;;;;;;;;;;25.30;54.86;101137.97;5050157;28;1149;-67
2021/07/10 03:04:56;;;;;;;;;;;;;;;25.30;54.51;101131.78;5049585;28;1290;-68
2021/07/10 03:07:42;;;;;;;;;;;;;;;25.31;54.62;101128.16;5049868;28;1242;-68
2021/07/10 03:10:27;;;;;;;;;;;;;;;25.30;54.58;101127.31;5049498;28;655;-68
2021/07/10 03:13:13;;;;;;;;;;;;;;;25.31;54.34;101121.00;5048000;28;1365;-68
2021/07/10 03:15:59;;;;;;;;;;;;;;;25.31;54.53;101123.69;5049654;28;1972;-68
2021/07/10 03:18:44;;;;;;;;;;;;;;;25.30;54.69;101127.31;5049307;28;1272;-68
2021/07/10 03:21:29;;;;;;;;;;;;;;;25.31;55.01;101128.16;5049563;28;1081;-68
2021/07/10 03:24:14;;;;;;;;;;;;;;;25.29;54.86;101125.59;5049232;28;1272;-68
2021/07/10 03:27:00;;;;;;;;;;;;;;;25.29;54.86;101125.59;5049768;28;1032;-69
2021/07/10 03:29:44;;;;;;;;;;;;;;;25.28;54.57;101123.91;5049593;28;1339;-69
2021/07/10 03:32:30;;;;;;;;;;;;;;;25.27;55.14;101127.53;5049148;28;1350;-68
2021/07/10 03:35:15;;;;;;;;;;;;;;;25.28;55.63;101123.06;5049568;28;703;-68
2021/07/10 03:38:02;;;;;;;;;;;;;;;25.27;55.33;101119.53;5049133;28;1954;-68
2021/07/10 03:40:47;;;;;;;;;;;;;;;25.27;55.44;101118.69;5048142;28;1036;-68
2021/07/10 03:43:33;;;;;;;;;;;;;;;25.27;55.53;101116.88;5048244;28;1280;-67
2021/07/10 03:46:18;;;;;;;;;;;;;;;25.27;55.75;101119.53;5049668;28;1095;-68
2021/07/10 03:49:03;;;;;;;;;;;;;;;25.27;55.83;101110.69;5049429;28;1367;-69
2021/07/10 03:51:48;;;;;;;;;;;;;;;25.25;56.14;101112.63;5049051;28;1251;-69
2021/07/10 03:54:34;;;;;;;;;;;;;;;25.27;56.09;101116.03;5048903;28;1248;-68
2021/07/10 03:57:19;;;;;;;;;;;;;;;25.26;55.38;101117.00;5061883;28;1965;-68
2021/07/10 04:00:05;;;;;;;;;;;;;;;25.24;55.09;101108.25;5049410;28;749;-69
2021/07/10 04:02:50;;;;;;;;;;;;;;;25.24;56.37;101111.78;5048828;28;1217;-69
2021/07/10 04:05:36;;;;;;;;;;;;;;;25.26;55.66;101109.84;5048872;28;976;-69
2021/07/10 04:08:21;;;;;;;;;;;;;;;25.24;56.56;101108.25;5048921;28;1368;-69
2021/07/10 04:11:07;;;;;;;;;;;;;;;25.23;56.19;101114.59;5048769;28;1044;-69
2021/07/10 04:13:52;;;;;;;;;;;;;;;25.22;56.34;101116.41;5048396;28;1275;-69
2021/07/10 04:16:37;;;;;;;;;;;;;;;25.24;56.75;101119.78;5048537;28;1922;-68
2021/07/10 04:19:23;;;;;;;;;;;;;;;25.22;56.63;101124.41;5047492;28;1280;-68
2021/07/10 04:22:08;;;;;;;;;;;;;;;25.26;56.60;101119.69;5048883;28;1131;-69
2021/07/10 04:24:53;;;;;;;;;;;;;;;25.24;55.94;101125.13;5047889;28;1288;-67
2021/07/10 04:27:39;;;;;;;;;;;;;;;25.23;56.86;101123.41;5048793;28;1355;-67
2021/07/10 04:30:24;;;;;;;;;;;;;;;25.24;56.59;101121.59;5048685;28;631;-67
2021/07/10 04:33:10;;;;;;;;;;;;;;;25.20;57.21;101118.31;5048149;28;1279;-67
2021/07/10 04:35:55;;;;;;;;;;;;;;;25.21;57.14;101114.69;5047974;28;1044;-67
2021/07/10 04:38:40;;;;;;;;;;;;;;;25.21;56.71;101122.69;5047873;28;1390;-68
2021/07/10 04:41:25;;;;;;;;;;;;;;;25.22;57.46;101121.72;5047132;28;1143;-67
2021/07/10 04:44:10;;;;;;;;;;;;;;;25.21;57.54;101116.50;5048142;28;1290;-67
2021/07/10 04:46:56;;;;;;;;;;;;;;;25.21;57.84;101116.50;5048643;28;1092;-67
2021/07/10 04:49:41;;;;;;;;;;;;;;;25.22;57.89;101118.22;5048309;28;1213;-68
2021/07/10 04:52:28;;;;;;;;;;;;;;;25.23;57.29;101117.25;5047648;28;1298;-68
2021/07/10 04:55:15;;;;;;;;;;;;;;;25.22;57.34;101113.72;5048145;28;647;-69
2021/07/10 04:58:00;;;;;;;;;;;;;;;25.21;57.82;101112.03;5048703;28;1941;-68
2021/07/10 05:00:45;;;;;;;;;;;;;;;25.18;57.01;101109.59;5048466;28;1062;-68
2021/07/10 05:03:31;;;;;;;;;;;;;;;25.24;57.45;101114.44;5048291;28;1276;-68
2021/07/10 05:06:16;;;;;;;;;;;;;;;25.22;57.59;101103.06;5046717;28;1005;-67
2021/07/10 05:09:02;;;;;;;;;;;;;;;25.20;58.16;101101.50;5047937;28;1238;-66
2021/07/10 05:11:47;;;;;;;;;;;;;;;25.19;58.05;101102.47;5047966;28;1072;-67
2021/07/10 05:14:32;;;;;;;;;;;;;;;25.21;58.16;101109.34;5047896;28;1354;-68
2021/07/10 05:17:18;;;;;;;;;;;;;;;25.23;58.05;101107.41;5046012;28;1901;-68
2021/07/10 05:20:05;;;;;;;;;;;;;;;25.21;57.47;101106.69;5040755;28;1366;-68
2021/07/10 05:22:49;;;;;;;;;;;;;;;25.22;57.98;101099.53;5037748;28;1294;-68
2021/07/10 05:25:35;;;;;;;;;;;;;;;25.23;58.00;101103.91;5036101;28;664;-68
2021/07/10 05:28:20;;;;;;;;;;;;;;;25.23;58.16;101103.91;5047931;28;1276;-68
2021/07/10 05:31:05;;;;;;;;;;;;;;;25.23;58.36;101104.75;5047315;28;1153;-69
2021/07/10 05:33:52;;;;;;;;;;;;;;;25.22;57.39;101097.75;5027596;28;1312;-67
2021/07/10 05:36:38;;;;;;;;;;;;;;;25.22;57.88;101103.06;5029492;28;1902;-69
2021/07/10 05:39:23;;;;;;;;;;;;;;;25.24;57.18;101111.78;5031452;28;1292;-68
2021/07/10 05:42:09;;;;;;;;;;;;;;;25.23;57.61;101112.75;5031561;28;1076;-70
2021/07/10 05:44:54;;;;;;;;;;;;;;;25.22;57.70;101108.41;5041332;28;1290;-69
2021/07/10 05:47:40;;;;;;;;;;;;;;;25.23;57.87;101103.91;5051291;28;1359;-69
2021/07/10 05:50:25;;;;;;;;;;;;;;;25.23;58.30;101109.25;5050818;28;582;-68
2021/07/10 05:53:11;;;;;;;;;;;;;;;25.22;58.46;101111.06;5051052;28;1401;-68
2021/07/10 05:55:56;;;;;;;;;;;;;;;25.22;57.74;101108.41;5051137;28;923;-69
2021/07/10 05:58:41;;;;;;;;;;;;;;;25.21;57.39;101109.34;5050619;28;1961;-70
2021/07/10 06:01:26;;;;;;;;;;;;;;;25.21;57.16;101106.69;5050698;28;1039;-69
2021/07/10 06:04:11;;;;;;;;;;;;;;;25.24;58.15;101110.94;5050781;28;1311;-68
2021/07/10 06:06:57;;;;;;;;;;;;;;;25.19;58.59;101115.78;5051248;28;945;-68
2021/07/10 06:09:42;;;;;;;;;;;;;;;25.16;59.09;101111.53;5050715;28;1268;-69
2021/07/10 06:12:28;;;;;;;;;;;;;;;25.20;58.66;101114.81;5042398;28;1562;-70
2021/07/10 06:15:13;;;;;;;;;;;;;;;25.21;59.05;101117.34;5036450;28;1314;-69
2021/07/10 06:17:58;;;;;;;;;;;;;;;25.23;58.79;101119.91;5036824;28;1902;-70
2021/07/10 06:20:44;;;;;;;;;;;;;;;25.25;58.94;101121.50;5037114;28;1325;-69
2021/07/10 06:23:29;;;;;;;;;;;;;;;25.23;58.55;101114.59;5034559;28;1328;-71
2021/07/10 06:26:14;;;;;;;;;;;;;;;25.30;58.53;101115.78;5034686;28;1575;-67
2021/07/10 06:29:01;;;;;;;;;;;;;;;25.30;58.83;101111.31;5035918;28;1392;-70
2021/07/10 06:31:46;;;;;;;;;;;;;;;25.28;58.70;101118.59;5035866;28;1321;-69
2021/07/10 06:34:31;;;;;;;;;;;;;;;25.30;58.42;101115.78;5035257;28;1434;-69
2021/07/10 06:37:18;;;;;;;;;;;;;;;25.32;58.46;101114.69;5036347;28;1906;-70
2021/07/10 06:40:05;;;;;;;;;;;;;;;25.34;58.39;101111.91;5035244;28;1253;-68
2021/07/10 06:42:50;;;;;;;;;;;;;;;25.37;58.26;101119.66;5035720;28;1244;-67
2021/07/10 06:45:35;;;;;;;;;;;;;;;25.37;58.05;101123.19;5035448;28;1364;-67
2021/07/10 06:48:21;;;;;;;;;;;;;;;25.38;58.16;101119.53;5035068;28;1324;-69
2021/07/10 06:51:06;;;;;;;;;;;;;;;25.37;57.91;101117.84;5035748;28;1316;-68
2021/07/10 06:53:51;;;;;;;;;;;;;;;25.38;58.31;101124.03;5035353;28;1435;-68
2021/07/10 06:56:37;;;;;;;;;;;;;;;25.40;58.17;101130.09;5035051;28;1318;-68
2021/07/10 06:59:22;;;;;;;;;;;;;;;25.40;58.04;101122.09;5035944;28;1405;-68
2021/07/10 07:02:07;;;;;;;;;;;;;;;25.43;58.06;101117.38;5035612;28;1305;-68
2021/07/10 07:04:52;;;;;;;;;;;;;;;25.43;57.70;101121.84;5034747;28;1430;-68
2021/07/10 07:07:38;;;;;;;;;;;;;;;25.43;57.88;101114.72;5036121;28;1472;-68
2021/07/10 07:10:24;;;;;;;;;;;;;;;25.43;57.34;101117.38;5036451;28;1270;-68
2021/07/10 07:13:09;;;;;;;;;;;;;;;25.46;57.47;101116.28;5035020;28;1347;-69
2021/07/10 07:15:54;;;;;;;;;;;;;;;25.45;57.73;101111.91;5035752;28;1302;-69
2021/07/10 07:18:40;;;;;;;;;;;;;;;25.45;57.58;101112.75;5047529;28;1961;-68
2021/07/10 07:21:26;;;;;;;;;;;;;;;25.47;57.45;101108.13;5049604;28;1148;-68
2021/07/10 07:24:12;;;;;;;;;;;;;;;25.48;57.43;101109.88;5049442;28;1289;-68
2021/07/10 07:26:57;;;;;;;;;;;;;;;25.49;57.11;101100.06;5049133;28;913;-68
2021/07/10 07:29:43;;;;;;;;;;;;;;;25.50;57.33;101107.94;5048813;28;1266;-69
2021/07/10 07:32:29;;;;;;;;;;;;;;;25.52;57.18;101108.66;5049196;28;996;-68
2021/07/10 07:35:15;;;;;;;;;;;;;;;25.51;57.40;101109.63;5049296;28;620;-68
2021/07/10 07:38:00;;;;;;;;;;;;;;;25.51;57.17;101109.63;5049335;28;1972;-68
2021/07/10 07:40:45;;;;;;;;;;;;;;;25.52;57.15;101106.00;5048906;28;1127;-69
2021/07/10 07:43:31;;;;;;;;;;;;;;;25.54;56.87;101109.38;5048101;28;1296;-69
2021/07/10 07:46:16;;;;;;;;;;;;;;;25.56;57.14;101113.75;5048743;28;1088;-69
2021/07/10 07:49:03;;;;;;;;;;;;;;;25.57;56.83;101110.09;5048911;28;1288;-68
2021/07/10 07:51:48;;;;;;;;;;;;;;;25.57;57.28;101107.44;5047196;28;1198;-70
2021/07/10 07:54:34;;;;;;;;;;;;;;;25.58;56.07;101106.47;5048625;28;1376;-70
2021/07/10 07:57:19;;;;;;;;;;;;;;;25.59;57.45;101108.19;5048799;28;1914;-70
2021/07/10 08:00:10;;;;;;;;;;;;;;;25.58;57.42;101099.31;5048846;28;643;-70
2021/07/10 08:02:55;;;;;;;;;;;;;;;25.60;57.37;101096.53;5049082;28;1354;-69
2021/07/10 08:05:41;;;;;;;;;;;;;;;25.60;56.87;101096.53;5048912;28;1050;-69
2021/07/10 08:08:26;;;;;;;;;;;;;;;25.61;57.19;101092.88;5048924;28;1279;-67
2021/07/10 08:11:11;;;;;;;;;;;;;;;25.61;56.54;101093.75;5048674;28;1134;-68
2021/07/10 08:13:58;;;;;;;;;;;;;;;25.64;56.60;101093.50;5048707;28;1288;-71
2021/07/10 08:16:43;;;;;;;;;;;;;;;25.64;56.25;101089.97;5048736;28;953;-70
2021/07/10 08:19:29;;;;;;;;;;;;;;;25.67;57.16;101087.06;5048425;28;1342;-71
2021/07/10 08:22:14;;;;;;;;;;;;;;;25.67;57.19;101084.41;5048128;28;1070;-73
2021/07/10 08:24:59;;;;;;;;;;;;;;;25.68;56.48;101078.09;5047235;28;1357;-72
2021/07/10 08:27:45;;;;;;;;;;;;;;;25.68;56.24;101080.75;5048359;28;1236;-71
2021/07/10 08:30:31;;;;;;;;;;;;;;;25.69;56.89;101080.63;5048385;28;615;-72
2021/07/10 08:33:17;;;;;;;;;;;;;;;25.71;56.84;101081.38;5048143;28;1276;-68
2021/07/10 08:36:03;;;;;;;;;;;;;;;25.74;55.90;101074.94;5047956;28;1036;-69
2021/07/10 08:38:48;;;;;;;;;;;;;;;25.76;56.51;101071.16;5048604;28;1953;-71
2021/07/10 08:41:34;;;;;;;;;;;;;;;25.80;56.54;101069.09;5048266;28;932;-72
2021/07/10 08:44:20;;;;;;;;;;;;;;;25.81;56.31;101068.94;5047854;28;1294;-70
2021/07/10 08:47:05;;;;;;;;;;;;;;;25.84;56.48;101063.38;5048517;28;1139;-68
2021/07/10 08:49:51;;;;;;;;;;;;;;;25.87;56.39;101067.63;5046042;28;1536;-69
2021/07/10 08:52:36;;;;;;;;;;;;;;;25.86;56.75;101065.94;5036859;28;1591;-68
2021/07/10 08:55:22;;;;;;;;;;;;;;;25.84;56.05;101062.53;5027379;28;691;-67
2021/07/10 08:58:07;;;;;;;;;;;;;;;25.92;56.77;101063.59;5028458;28;1898;-67
2021/07/10 09:00:52;;;;;;;;;;;;;;;25.95;56.81;101060.69;5028015;28;946;-73
2021/07/10 09:03:39;;;;;;;;;;;;;;;25.96;56.51;101064.22;5027862;28;1237;-68
2021/07/10 09:06:24;;;;;;;;;;;;;;;26.03;56.79;101060.03;5026697;28;995;-67
2021/07/10 09:09:10;;;;;;;;;;;;;;;26.04;55.49;101056.41;5027772;28;1277;-68
2021/07/10 09:11:59;;;;;;;;;;;;;;;26.05;55.42;101055.44;5029916;28;1034;-64
2021/07/10 09:14:45;;;;;;;;;;;;;;;26.05;56.08;101061.59;5031463;28;1355;-65
2021/07/10 09:17:30;;;;;;;;;;;;;;;26.01;56.93;101054.84;5031830;28;1979;-65
2021/07/10 09:20:20;;;;;;;;;;;;;;;25.97;57.73;101053.38;5031332;28;652;-67
2021/07/10 09:23:22;;;;;;;;;;;;;;;25.98;57.77;101056.91;5031143;28;1320;-69
2021/07/10 09:26:33;;;;;;;;;;;;;;;25.99;57.68;101050.59;5031546;28;1125;-69
2021/07/10 09:29:23;;;;;;;;;;;;;;;25.99;57.18;101046.09;5031224;28;1300;-68
2021/07/10 09:32:10;;;;;;;;;;;;;;;26.03;57.59;101047.53;5031482;28;1061;-64
2021/07/10 09:34:56;;;;;;;;;;;;;;;26.03;56.94;101047.53;5031389;28;1288;-65
2021/07/10 09:37:52;;;;;;;;;;;;;;;26.08;57.24;101044.50;5031173;28;1922;-70
2021/07/10 09:40:39;;;;;;;;;;;;;;;26.07;56.96;101043.66;5029962;28;1135;-67
2021/07/10 09:43:32;;;;;;;;;;;;;;;26.03;56.61;101034.19;5031514;28;1298;-66
2021/07/10 09:46:27;;;;;;;;;;;;;;;26.01;56.25;101041.50;5031715;28;1054;-65
2021/07/10 09:49:18;;;;;;;;;;;;;;;26.04;56.73;101038.56;5031193;28;1263;-67
2021/07/10 09:52:04;;;;;;;;;;;;;;;26.08;56.99;101033.81;5030634;28;1132;-66
2021/07/10 09:55:09;;;;;;;;;;;;;;;26.04;56.28;101040.38;5036164;28;1524;-66
2021/07/10 09:57:57;;;;;;;;;;;;;;;26.06;57.71;101025.06;5030208;28;1967;-65
2021/07/10 10:00:43;;;;;;;;;;;;;;;26.06;56.80;101025.06;5030552;28;1036;-71
2021/07/10 10:03:32;;;;;;;;;;;;;;;26.18;57.56;101029.44;5030974;28;1399;-68
2021/07/10 10:06:32;;;;;;;;;;;;;;;26.10;57.39;101029.19;5030553;28;1084;-68
2021/07/10 10:09:22;;;;;;;;;;;;;;;26.08;57.49;101023.97;5029342;28;1260;-67
2021/07/10 10:12:14;;;;;;;;;;;;;;;26.09;57.07;101022.16;5030806;28;1069;-68
2021/07/10 10:15:00;;;;;;;;;;;;;;;26.05;56.56;101008.22;5030240;28;1312;-67
2021/07/10 10:17:46;;;;;;;;;;;;;;;26.06;56.35;101009.06;5030255;28;1894;-68
2021/07/10 10:20:31;;;;;;;;;;;;;;;26.06;56.02;101001.06;5030152;28;663;-68
2021/07/10 10:23:18;;;;;;;;;;;;;;;26.08;56.16;101004.47;5030506;28;1285;-67
2021/07/10 10:26:03;;;;;;;;;;;;;;;26.09;56.16;101003.47;5030181;28;1089;-70
2021/07/10 10:28:50;;;;;;;;;;;;;;;26.08;56.25;100999.94;5048607;28;1539;-66
2021/07/10 10:31:39;;;;;;;;;;;;;;;26.11;55.90;101001.53;5029644;28;962;-66
2021/07/10 10:34:25;;;;;;;;;;;;;;;26.11;56.37;100990.84;5030004;28;1245;-66
2021/07/10 10:37:12;;;;;;;;;;;;;;;26.11;55.65;101009.53;5030518;28;985;-66
2021/07/10 10:39:58;;;;;;;;;;;;;;;26.11;55.76;100998.00;5029316;28;1906;-65
2021/07/10 10:42:44;;;;;;;;;;;;;;;26.12;55.88;101005.88;5030449;28;1287;-65
2021/07/10 10:45:34;;;;;;;;;;;;;;;26.12;56.15;101005.88;5029930;28;696;-66
2021/07/10 10:48:35;;;;;;;;;;;;;;;26.12;55.98;101002.34;5030165;28;1303;-66
2021/07/10 10:51:32;;;;;;;;;;;;;;;26.13;55.57;100994.22;5029975;28;1307;-66
2021/07/10 10:54:17;;;;;;;;;;;;;;;26.15;56.15;100994.97;5029766;28;1351;-66
2021/07/10 10:57:09;;;;;;;;;;;;;;;26.17;55.48;101001.06;5030461;28;1112;-66
2021/07/10 10:59:54;;;;;;;;;;;;;;;26.16;55.61;100998.50;5029477;28;1902;-66
2021/07/10 11:02:41;;;;;;;;;;;;;;;26.20;55.98;100995.44;5029713;28;1229;-66
2021/07/10 11:05:33;;;;;;;;;;;;;;;26.18;55.70;100989.38;5029480;28;600;-67
2021/07/10 11:08:22;;;;;;;;;;;;;;;26.19;55.79;100990.22;5028197;28;1272;-66
2021/07/10 11:11:07;;;;;;;;;;;;;;;26.18;55.44;100984.03;5044660;28;1128;-67
2021/07/10 11:14:19;;;;;;;;;;;;;;;26.22;55.61;100987.28;5044118;28;1391;-67
2021/07/10 11:17:05;;;;;;;;;;;;;;;26.21;56.20;100975.75;5049958;28;1094;-68
2021/07/10 11:19:52;;;;;;;;;;;;;;;26.21;56.10;100972.25;5040864;28;1910;-67
2021/07/10 11:22:54;;;;;;;;;;;;;;;26.19;57.15;100972.38;5027828;28;1310;-67
2021/07/10 11:25:47;;;;;;;;;;;;;;;26.31;58.13;100968.69;5029226;28;1084;-66
2021/07/10 11:28:40;;;;;;;;;;;;;;;26.35;56.92;100969.25;5029818;28;1335;-76
2021/07/10 11:31:31;;;;;;;;;;;;;;;26.33;56.62;100950.69;5028372;28;1046;-72
2021/07/10 11:34:20;;;;;;;;;;;;;;;26.33;56.67;100964.03;5027907;28;1351;-70
2021/07/10 11:37:18;;;;;;;;;;;;;;;26.35;57.77;100959.44;5028674;28;1069;-72
2021/07/10 11:40:05;;;;;;;;;;;;;;;26.37;56.54;100960.13;5038916;28;1897;-70
2021/07/10 11:42:50;;;;;;;;;;;;;;;26.37;55.97;100944.13;5028321;28;1333;-71
2021/07/10 11:45:37;;;;;;;;;;;;;;;26.38;56.36;100950.31;5042551;28;1524;-72
2021/07/10 11:48:23;;;;;;;;;;;;;;;26.41;56.42;100944.69;5042173;28;1296;-73
2021/07/10 11:51:09;;;;;;;;;;;;;;;26.44;55.75;100939.94;5029377;28;1187;-70
2021/07/10 11:53:58;;;;;;;;;;;;;;;26.52;54.94;100932.09;5029266;28;1210;-70
2021/07/10 11:56:50;;;;;;;;;;;;;;;26.48;55.26;100930.66;5029311;28;1027;-70
2021/07/10 11:59:37;;;;;;;;;;;;;;;26.53;55.11;100939.16;5027445;28;1918;-69
2021/07/10 12:02:30;;;;;;;;;;;;;;;26.56;55.46;100927.34;5043902;28;1536;-68
2021/07/10 12:05:20;;;;;;;;;;;;;;;26.57;56.43;100916.50;5029321;28;647;-70
2021/07/10 12:08:05;;;;;;;;;;;;;;;26.59;57.21;100921.75;5027688;28;1351;-69
2021/07/10 12:10:51;;;;;;;;;;;;;;;26.59;55.81;100925.25;5028537;28;1055;-69
2021/07/10 12:13:37;;;;;;;;;;;;;;;26.65;55.02;100928.38;5028081;28;1217;-68
2021/07/10 12:16:22;;;;;;;;;;;;;;;26.59;54.07;100917.25;5027010;28;1179;-69
2021/07/10 12:19:08;;;;;;;;;;;;;;;26.70;53.17;100908.28;5028147;28;1902;-69
2021/07/10 12:22:04;;;;;;;;;;;;;;;26.56;54.15;100897.97;5037230;28;941;-72
2021/07/10 12:24:58;;;;;;;;;;;;;;;26.43;52.67;100900.84;5046889;28;1335;-68
2021/07/10 12:27:50;;;;;;;;;;;;;;;26.34;51.48;100903.47;5047929;28;1271;-68
2021/07/10 12:30:35;;;;;;;;;;;;;;;26.29;51.27;100895.88;5047898;28;596;-69
2021/07/10 12:33:33;;;;;;;;;;;;;;;26.27;50.61;100894.28;5047436;28;1193;-71
2021/07/10 12:36:22;;;;;;;;;;;;;;;26.20;49.94;100896.66;5046806;28;1141;-72
2021/07/10 12:39:09;;;;;;;;;;;;;;;26.18;50.54;100887.91;5047492;28;1898;-70
2021/07/10 12:41:56;;;;;;;;;;;;;;;26.16;50.42;100883.69;5041977;28;1559;-77
2021/07/10 12:44:42;;;;;;;;;;;;;;;26.10;50.66;100882.38;5047160;28;1229;-78
2021/07/10 12:47:29;;;;;;;;;;;;;;;26.08;50.02;100879.81;5048325;28;1114;-72
2021/07/10 12:50:14;;;;;;;;;;;;;;;26.05;49.99;100879.25;5051166;28;905;-68
2021/07/10 12:53:04;;;;;;;;;;;;;;;25.99;49.69;100877.13;5035187;28;1343;-72
2021/07/10 12:56:00;;;;;;;;;;;;;;;25.89;50.20;100881.53;5064878;28;1037;-68
2021/07/10 12:58:46;;;;;;;;;;;;;;;25.96;49.53;100885.38;5051620;28;2018;-66
2021/07/10 13:01:31;;;;;;;;;;;;;;;25.95;49.21;100873.00;5050979;28;1108;-67
2021/07/10 13:04:17;;;;;;;;;;;;;;;26.06;48.55;100864.91;5031741;28;1318;-73
2021/07/10 13:07:02;;;;;;;;;;;;;;;25.99;48.14;100859.25;5046572;28;1022;-75
2021/07/10 13:09:48;;;;;;;;;;;;;;;25.92;48.12;100866.09;5050954;28;1244;-72
2021/07/10 13:12:41;;;;;;;;;;;;;;;25.88;48.49;100869.16;5047716;28;1088;-71
2021/07/10 13:15:29;;;;;;;;;;;;;;;25.89;48.32;100873.53;5050460;28;651;-68
2021/07/10 13:18:16;;;;;;;;;;;;;;;25.82;47.76;100861.66;5050901;28;1905;-68
2021/07/10 13:21:06;;;;;;;;;;;;;;;25.78;47.71;100865.56;5051174;28;1213;-68
2021/07/10 13:23:53;;;;;;;;;;;;;;;25.75;47.24;100857.81;5045757;28;1418;-71
2021/07/10 13:26:42;;;;;;;;;;;;;;;25.72;47.04;100860.75;5048666;28;1210;-75
2021/07/10 13:29:29;;;;;;;;;;;;;;;25.72;46.81;100850.06;5051062;28;1268;-72
2021/07/10 13:32:21;;;;;;;;;;;;;;;25.68;45.81;100854.00;5049186;28;1309;-74
2021/07/10 13:35:07;;;;;;;;;;;;;;;25.66;45.60;100854.13;5050790;28;1181;-78
2021/07/10 13:37:53;;;;;;;;;;;;;;;25.63;45.37;100837.50;5046703;28;1275;-75
2021/07/10 13:40:38;;;;;;;;;;;;;;;25.61;45.14;100843.00;5044491;28;1898;-76
2021/07/10 13:43:24;;;;;;;;;;;;;;;25.58;44.79;100834.41;5046891;28;1437;-73
2021/07/10 13:46:10;;;;;;;;;;;;;;;25.51;44.84;100847.41;5048638;28;1092;-76
2021/07/10 13:48:55;;;;;;;;;;;;;;;25.52;44.61;100843.78;5046968;28;1316;-75
2021/07/10 13:51:46;;;;;;;;;;;;;;;25.53;44.56;100834.81;5046370;28;1190;-77
2021/07/10 13:54:33;;;;;;;;;;;;;;;25.51;44.30;100826.91;5044700;28;1315;-77
2021/07/10 13:57:21;;;;;;;;;;;;;;;25.47;44.24;100836.09;5043942;28;1242;-77
2021/07/10 14:00:28;;;;;;;;;;;;;;;25.46;44.21;100829.09;5044628;28;1973;-75
2021/07/10 14:03:14;;;;;;;;;;;;;;;25.46;44.32;100826.44;5043426;28;1312;-76
2021/07/10 14:05:59;;;;;;;;;;;;;;;25.44;44.09;100820.38;5045053;28;1218;-75
2021/07/10 14:08:45;;;;;;;;;;;;;;;25.44;44.31;100841.69;5044411;28;1355;-74
2021/07/10 14:11:30;;;;;;;;;;;;;;;25.61;45.13;100826.13;5045926;28;1313;-72
2021/07/10 14:14:15;;;;;;;;;;;;;;;25.76;46.22;100820.34;5047715;28;1343;-77
2021/07/10 14:17:01;;;;;;;;;;;;;;;25.80;48.24;100815.59;5048235;28;1055;-80
2021/07/10 14:19:47;;;;;;;;;;;;;;;25.91;48.60;100815.53;5050333;28;1910;-78
2021/07/10 14:22:32;;;;;;;;;;;;;;;25.95;49.25;100814.28;5047472;28;1078;-78
2021/07/10 14:25:19;;;;;;;;;;;;;;;25.98;49.25;100800.69;5047493;28;1048;-80
2021/07/10 14:28:05;;;;;;;;;;;;;;;26.03;49.12;100798.44;5047532;28;1314;-72
2021/07/10 14:30:50;;;;;;;;;;;;;;;26.04;49.83;100803.66;5046016;28;1115;-78